createdAt,value
2018-09-24T00:01:04.192Z,17.12
2018-09-24T00:03:33.110Z,17.15
2018-09-24T00:06:01.829Z,17.36
2018-09-24T00:08:30.630Z,17.20
2018-09-24T00:10:59.608Z,17.26
2018-09-24T00:13:28.590Z,17.12
2018-09-24T00:15:57.413Z,17.25
2018-09-24T00:18:26.208Z,17.15
2018-09-24T00:20:55.031Z,16.91
2018-09-24T00:23:24.022Z,16.96
2018-09-24T00:25:52.707Z,17.20
2018-09-24T00:28:21.568Z,16.85
2018-09-24T00:30:50.662Z,16.93
2018-09-24T00:33:19.561Z,17.07
2018-09-24T00:35:48.444Z,16.66
2018-09-24T00:38:17.353Z,16.62
2018-09-24T00:40:46.517Z,16.56
2018-09-24T00:43:15.669Z,16.76
2018-09-24T00:45:44.735Z,16.47
2018-09-24T00:48:13.504Z,16.64
2018-09-24T00:50:42.134Z,16.40
2018-09-24T00:53:10.840Z,16.54
2018-09-24T00:55:39.697Z,16.60
2018-09-24T00:58:08.683Z,16.50
2018-09-24T01:00:37.614Z,16.53
2018-09-24T01:03:06.702Z,16.48
2018-09-24T01:05:35.895Z,16.39
2018-09-24T01:08:05.011Z,16.51
2018-09-24T01:10:33.897Z,16.61
2018-09-24T01:13:02.775Z,16.61
2018-09-24T01:15:31.745Z,16.38
2018-09-24T01:18:00.582Z,16.49
2018-09-24T01:20:29.322Z,16.45
2018-09-24T01:22:57.907Z,16.57
2018-09-24T01:25:26.538Z,16.38
2018-09-24T01:27:55.394Z,16.33
2018-09-24T01:30:24.359Z,16.50
2018-09-24T01:32:53.266Z,16.48
2018-09-24T01:35:21.985Z,16.64
2018-09-24T01:37:50.939Z,16.63
2018-09-24T01:40:19.935Z,16.27
2018-09-24T01:42:49.174Z,16.47
2018-09-24T01:45:17.927Z,16.46
2018-09-24T01:47:46.773Z,16.00
2018-09-24T01:50:15.514Z,15.86
2018-09-24T01:52:44.254Z,16.16
2018-09-24T01:55:13.039Z,16.22
2018-09-24T01:57:42.056Z,16.22
2018-09-24T02:00:11.102Z,16.46
2018-09-24T02:02:40.062Z,16.19
2018-09-24T02:05:14.847Z,16.21
2018-09-24T02:07:43.829Z,15.94
2018-09-24T02:10:13.002Z,16.32
2018-09-24T02:12:42.207Z,15.50
2018-09-24T02:15:11.113Z,15.92
2018-09-24T02:17:40.012Z,15.97
2018-09-24T02:20:08.670Z,16.01
2018-09-24T02:22:37.830Z,15.93
2018-09-24T02:25:06.889Z,15.96
2018-09-24T02:27:35.788Z,15.89
2018-09-24T02:30:05.139Z,15.89
2018-09-24T02:32:34.036Z,16.11
2018-09-24T02:35:03.026Z,15.88
2018-09-24T02:37:31.937Z,15.75
2018-09-24T02:40:00.830Z,15.91
2018-09-24T02:42:29.626Z,16.06
2018-09-24T02:44:59.394Z,15.67
2018-09-24T02:47:32.544Z,15.58
2018-09-24T02:50:02.779Z,15.65
2018-09-24T02:52:31.485Z,15.87
2018-09-24T02:55:00.515Z,15.58
2018-09-24T02:57:29.335Z,15.57
2018-09-24T02:59:58.327Z,15.67
2018-09-24T03:02:27.126Z,15.94
2018-09-24T03:04:57.005Z,15.68
2018-09-24T03:07:25.843Z,15.82
2018-09-24T03:09:54.923Z,15.79
2018-09-24T03:12:24.014Z,15.41
2018-09-24T03:14:53.027Z,15.53
2018-09-24T03:17:22.184Z,15.49
2018-09-24T03:19:50.775Z,15.37
2018-09-24T03:22:22.625Z,15.59
2018-09-24T03:24:51.864Z,15.76
2018-09-24T03:27:20.950Z,15.52
2018-09-24T03:29:49.707Z,15.60
2018-09-24T03:32:18.607Z,15.36
2018-09-24T03:34:47.531Z,15.39
2018-09-24T03:37:16.468Z,15.08
2018-09-24T03:39:45.443Z,15.36
2018-09-24T03:42:14.312Z,15.44
2018-09-24T03:44:43.462Z,15.41
2018-09-24T03:47:12.661Z,14.48
2018-09-24T03:49:41.310Z,15.22
2018-09-24T03:52:10.070Z,15.01
2018-09-24T03:54:38.800Z,15.24
2018-09-24T03:57:07.613Z,15.30
2018-09-24T03:59:36.451Z,14.99
2018-09-24T04:02:05.130Z,14.93
2018-09-24T04:04:39.387Z,14.81
2018-09-24T04:07:13.351Z,14.83
2018-09-24T04:09:47.607Z,14.75
2018-09-24T04:12:21.366Z,14.83
2018-09-24T04:14:55.800Z,14.90
2018-09-24T04:17:29.784Z,14.96
2018-09-24T04:20:03.947Z,14.81
2018-09-24T04:22:37.879Z,14.81
2018-09-24T04:25:11.983Z,14.69
2018-09-24T04:27:45.994Z,14.77
2018-09-24T04:30:19.939Z,14.75
2018-09-24T04:32:54.064Z,14.68
2018-09-24T04:35:28.298Z,14.91
2018-09-24T04:38:02.626Z,14.97
2018-09-24T04:40:36.623Z,14.83
2018-09-24T04:43:10.686Z,14.88
2018-09-24T04:45:44.567Z,15.00
2018-09-24T04:48:18.339Z,15.11
2018-09-24T04:50:52.519Z,14.98
2018-09-24T04:53:26.491Z,15.13
2018-09-24T04:56:00.803Z,15.14
2018-09-24T04:58:34.865Z,15.22
2018-09-24T05:01:08.865Z,15.36
2018-09-24T05:03:42.768Z,15.19
2018-09-24T05:06:16.947Z,15.32
2018-09-24T05:08:50.982Z,15.48
2018-09-24T05:11:25.198Z,15.59
2018-09-24T05:13:59.004Z,15.56
2018-09-24T05:16:32.894Z,15.76
2018-09-24T05:19:06.813Z,15.91
2018-09-24T05:21:40.691Z,15.95
2018-09-24T05:24:14.806Z,16.19
2018-09-24T05:26:48.743Z,16.31
2018-09-24T05:29:22.634Z,16.53
2018-09-24T05:31:56.801Z,16.50
2018-09-24T05:34:30.818Z,16.97
2018-09-24T05:37:04.996Z,16.98
2018-09-24T05:39:39.225Z,16.95
2018-09-24T05:42:13.619Z,17.12
2018-09-24T05:44:47.733Z,17.41
2018-09-24T05:47:21.698Z,17.48
2018-09-24T05:49:55.837Z,17.73
2018-09-24T05:52:29.632Z,17.83
2018-09-24T05:55:03.596Z,17.80
2018-09-24T05:57:37.724Z,17.93
2018-09-24T06:00:12.090Z,18.14
2018-09-24T06:02:46.098Z,18.12
2018-09-24T06:05:19.982Z,18.14
2018-09-24T06:07:53.908Z,18.23
2018-09-24T06:10:27.830Z,18.23
2018-09-24T06:13:01.880Z,18.38
2018-09-24T06:15:36.076Z,18.48
2018-09-24T06:18:09.888Z,18.85
2018-09-24T06:20:44.012Z,18.76
2018-09-24T06:23:18.314Z,19.12
2018-09-24T06:25:52.412Z,18.91
2018-09-24T06:28:26.328Z,19.13
2018-09-24T06:31:00.287Z,19.47
2018-09-24T06:33:34.398Z,19.35
2018-09-24T06:36:08.546Z,19.63
2018-09-24T06:38:42.613Z,19.60
2018-09-24T06:41:16.378Z,19.55
2018-09-24T06:43:50.243Z,20.06
2018-09-24T06:46:24.296Z,20.01
2018-09-24T06:48:58.120Z,19.70
2018-09-24T06:51:32.829Z,20.12
2018-09-24T06:54:06.887Z,20.22
2018-09-24T06:56:40.837Z,20.27
2018-09-24T06:59:14.882Z,20.52
2018-09-24T07:01:48.924Z,20.73
2018-09-24T07:04:22.932Z,20.76
2018-09-24T07:06:56.864Z,21.01
2018-09-24T07:09:30.711Z,20.97
2018-09-24T07:12:04.704Z,20.93
2018-09-24T07:14:38.867Z,21.04
2018-09-24T07:17:12.851Z,21.35
2018-09-24T07:19:46.845Z,21.33
2018-09-24T07:22:21.112Z,21.66
2018-09-24T07:24:55.343Z,21.82
2018-09-24T07:27:29.250Z,21.91
2018-09-24T07:30:03.472Z,21.94
2018-09-24T07:32:37.468Z,22.21
2018-09-24T07:35:11.794Z,22.60
2018-09-24T07:37:45.976Z,22.81
2018-09-24T07:40:19.751Z,22.73
2018-09-24T07:42:53.773Z,22.81
2018-09-24T07:45:27.862Z,23.15
2018-09-24T07:48:01.844Z,23.20
2018-09-24T07:50:36.248Z,23.55
2018-09-24T07:53:10.379Z,23.38
2018-09-24T07:55:44.323Z,23.49
2018-09-24T07:58:18.481Z,23.78
2018-09-24T08:00:52.427Z,24.06
2018-09-24T08:03:26.519Z,24.09
2018-09-24T08:06:00.418Z,24.17
2018-09-24T08:08:34.648Z,24.26
2018-09-24T08:11:09.617Z,24.40
2018-09-24T08:13:43.618Z,24.62
2018-09-24T08:16:17.772Z,24.93
2018-09-24T08:18:52.011Z,25.01
2018-09-24T08:21:26.354Z,25.23
2018-09-24T08:24:00.538Z,25.38
2018-09-24T08:26:34.352Z,25.71
2018-09-24T08:29:08.383Z,25.85
2018-09-24T08:31:42.399Z,25.73
2018-09-24T08:34:16.535Z,26.08
2018-09-24T08:36:50.680Z,26.21
2018-09-24T08:39:24.975Z,25.95
2018-09-24T08:41:58.897Z,26.03
2018-09-24T08:44:32.831Z,26.02
2018-09-24T08:47:06.744Z,26.42
2018-09-24T08:49:40.840Z,26.36
2018-09-24T08:52:14.969Z,26.42
2018-09-24T08:54:48.956Z,26.51
2018-09-24T08:57:23.035Z,26.72
2018-09-24T08:59:57.129Z,26.94
2018-09-24T09:02:31.479Z,26.85
2018-09-24T09:05:05.288Z,26.93
2018-09-24T09:07:39.306Z,27.01
2018-09-24T09:10:13.148Z,27.00
2018-09-24T09:12:47.291Z,27.28
2018-09-24T09:15:21.131Z,27.33
2018-09-24T09:17:55.250Z,27.42
2018-09-24T09:20:29.384Z,27.45
2018-09-24T09:23:03.333Z,27.22
2018-09-24T09:25:37.413Z,27.68
2018-09-24T09:28:11.257Z,27.89
2018-09-24T09:30:45.259Z,27.78
2018-09-24T09:33:19.223Z,27.91
2018-09-24T09:35:53.189Z,27.41
2018-09-24T09:38:27.116Z,27.66
2018-09-24T09:41:01.447Z,27.85
2018-09-24T09:43:35.719Z,27.87
2018-09-24T09:46:09.808Z,27.91
2018-09-24T09:48:43.675Z,28.36
2018-09-24T09:51:17.959Z,28.54
2018-09-24T09:53:52.082Z,29.09
2018-09-24T09:56:26.179Z,29.02
2018-09-24T09:59:00.025Z,28.78
2018-09-24T10:01:33.908Z,29.35
2018-09-24T10:04:07.939Z,29.42
2018-09-24T10:06:41.578Z,29.11
2018-09-24T10:09:15.454Z,29.40
2018-09-24T10:11:49.542Z,29.43
2018-09-24T10:14:23.899Z,29.27
2018-09-24T10:16:57.624Z,28.91
2018-09-24T10:19:31.787Z,29.42
2018-09-24T10:22:05.695Z,29.69
2018-09-24T10:24:39.627Z,29.50
2018-09-24T10:27:13.822Z,29.22
2018-09-24T10:29:47.747Z,29.33
2018-09-24T10:32:21.997Z,29.49
2018-09-24T10:34:55.973Z,29.74
2018-09-24T10:37:29.895Z,29.47
2018-09-24T10:40:04.002Z,29.66
2018-09-24T10:42:38.130Z,29.52
2018-09-24T10:45:12.315Z,28.90
2018-09-24T10:47:46.275Z,28.96
2018-09-24T10:50:20.258Z,29.28
2018-09-24T10:52:54.113Z,28.87
2018-09-24T10:55:28.057Z,28.66
2018-09-24T10:58:02.147Z,28.97
2018-09-24T11:00:36.299Z,29.38
2018-09-24T11:03:10.041Z,29.00
2018-09-24T11:05:43.814Z,29.63
2018-09-24T11:08:17.575Z,29.11
2018-09-24T11:10:51.606Z,29.11
2018-09-24T11:13:25.830Z,29.54
2018-09-24T11:16:00.964Z,29.87
2018-09-24T11:18:36.104Z,29.96
2018-09-24T11:21:10.159Z,29.49
2018-09-24T11:23:44.095Z,29.66
2018-09-24T11:28:52.543Z,29.85
2018-09-24T11:31:26.386Z,29.56
2018-09-24T11:34:00.353Z,29.30
2018-09-24T11:36:34.504Z,29.21
2018-09-24T11:39:08.743Z,28.33
2018-09-24T11:41:43.160Z,28.14
2018-09-24T11:44:17.372Z,27.34
2018-09-24T11:46:51.785Z,26.84
2018-09-24T11:49:25.714Z,26.45
2018-09-24T11:52:06.970Z,25.42
2018-09-24T11:54:41.283Z,24.88
2018-09-24T11:57:15.699Z,24.13
2018-09-24T11:59:49.517Z,23.65
2018-09-24T12:02:23.885Z,23.41
2018-09-24T12:04:57.752Z,23.45
2018-09-24T12:07:31.850Z,23.18
2018-09-24T12:10:05.825Z,23.12
2018-09-24T12:12:40.231Z,22.94
2018-09-24T12:15:14.062Z,22.53
2018-09-24T12:17:48.821Z,22.85
2018-09-24T12:20:23.028Z,22.62
2018-09-24T12:22:57.066Z,22.31
2018-09-24T12:25:31.223Z,22.07
2018-09-24T12:28:06.166Z,21.83
2018-09-24T12:30:39.895Z,21.46
2018-09-24T12:33:13.866Z,21.57
2018-09-24T12:35:47.857Z,21.33
2018-09-24T12:38:22.037Z,21.18
2018-09-24T12:40:55.975Z,21.16
2018-09-24T12:43:30.398Z,21.45
2018-09-24T12:46:04.456Z,21.15
2018-09-24T12:48:38.860Z,20.91
2018-09-24T12:51:12.698Z,20.70
2018-09-24T12:53:47.247Z,20.54
2018-09-24T12:56:21.450Z,19.99
2018-09-24T12:58:55.586Z,20.30
2018-09-24T13:01:29.481Z,19.49
2018-09-24T13:04:03.667Z,19.32
2018-09-24T13:06:37.654Z,18.93
2018-09-24T13:09:12.855Z,18.77
2018-09-24T13:11:46.826Z,18.41
2018-09-24T13:14:21.091Z,18.43
2018-09-24T13:16:55.003Z,18.57
2018-09-24T13:19:29.051Z,18.43
2018-09-24T13:22:03.011Z,17.60
2018-09-24T13:24:37.131Z,16.98
2018-09-24T13:27:11.319Z,17.04
2018-09-24T13:29:45.325Z,16.72
2018-09-24T13:32:19.145Z,16.55
2018-09-24T13:34:53.219Z,16.31
2018-09-24T13:37:27.330Z,15.95
2018-09-24T13:40:01.591Z,15.65
2018-09-24T13:42:35.642Z,15.65
2018-09-24T13:45:09.936Z,15.51
2018-09-24T13:47:44.159Z,15.46
2018-09-24T13:50:18.387Z,15.47
2018-09-24T13:52:52.695Z,15.50
2018-09-24T13:55:26.975Z,15.73
2018-09-24T13:58:00.873Z,15.59
2018-09-24T14:00:35.295Z,15.64
2018-09-24T14:03:09.116Z,15.61
2018-09-24T14:05:43.462Z,15.31
2018-09-24T14:08:17.374Z,15.36
2018-09-24T14:10:51.403Z,15.47
2018-09-24T14:13:25.562Z,15.33
2018-09-24T14:16:00.193Z,15.26
2018-09-24T14:18:34.351Z,15.67
2018-09-24T14:21:08.463Z,15.99
2018-09-24T14:23:42.619Z,15.87
2018-09-24T14:26:16.664Z,15.81
2018-09-24T14:28:50.366Z,16.28
2018-09-24T14:31:24.359Z,16.13
2018-09-24T14:33:58.383Z,16.00
2018-09-24T14:36:32.944Z,15.42
2018-09-24T14:39:06.923Z,15.67
2018-09-24T14:41:41.041Z,15.66
2018-09-24T14:44:14.894Z,15.58
2018-09-24T14:46:49.231Z,15.43
2018-09-24T14:49:23.680Z,15.17
2018-09-24T14:51:57.868Z,14.98
2018-09-24T14:54:31.562Z,14.93
2018-09-24T14:57:05.226Z,14.59
2018-09-24T14:59:39.000Z,14.52
2018-09-24T15:02:13.168Z,14.64
2018-09-24T15:04:47.235Z,14.36
2018-09-24T15:07:21.390Z,14.12
2018-09-24T15:09:55.266Z,14.04
2018-09-24T15:12:29.794Z,14.02
2018-09-24T15:15:03.903Z,13.99
2018-09-24T15:17:37.995Z,13.91
2018-09-24T15:20:11.900Z,13.72
2018-09-24T15:22:46.265Z,14.06
2018-09-24T15:25:20.005Z,13.78
2018-09-24T15:27:53.872Z,14.01
2018-09-24T15:30:28.030Z,13.88
2018-09-24T15:33:02.597Z,13.72
2018-09-24T15:35:36.566Z,13.49
2018-09-24T15:38:10.724Z,13.63
2018-09-24T15:40:44.692Z,13.48
2018-09-24T15:43:19.303Z,13.33
2018-09-24T15:45:53.562Z,13.47
2018-09-24T15:48:27.594Z,13.54
2018-09-24T15:51:01.776Z,13.33
2018-09-24T15:53:35.612Z,13.40
2018-09-24T15:56:09.422Z,13.39
2018-09-24T15:58:43.496Z,13.13
2018-09-24T16:01:17.350Z,13.55
2018-09-24T16:03:51.473Z,13.40
2018-09-24T16:06:25.564Z,13.43
2018-09-24T16:08:59.977Z,12.97
2018-09-24T16:11:33.857Z,12.93
2018-09-24T16:14:08.246Z,13.14
2018-09-24T16:16:42.322Z,12.90
2018-09-24T16:19:16.514Z,12.88
2018-09-24T16:21:50.275Z,13.03
2018-09-24T16:24:24.366Z,13.00
2018-09-24T16:26:58.117Z,12.77
2018-09-24T16:29:32.037Z,12.84
2018-09-24T16:32:06.030Z,12.74
2018-09-24T16:34:40.355Z,12.44
2018-09-24T16:37:14.403Z,12.24
2018-09-24T16:39:48.573Z,12.37
2018-09-24T16:42:22.651Z,12.28
2018-09-24T16:44:56.935Z,12.32
2018-09-24T16:47:30.858Z,12.13
2018-09-24T16:50:05.325Z,12.16
2018-09-24T16:52:39.474Z,12.28
2018-09-24T16:55:13.662Z,12.23
2018-09-24T16:57:47.706Z,12.05
2018-09-24T17:00:21.922Z,11.98
2018-09-24T17:02:55.715Z,12.00
2018-09-24T17:05:30.034Z,11.89
2018-09-24T17:08:04.039Z,12.08
2018-09-24T17:10:38.446Z,11.96
2018-09-24T17:13:12.478Z,11.93
2018-09-24T17:15:46.413Z,11.91
2018-09-24T17:18:20.572Z,11.90
2018-09-24T17:20:54.266Z,11.66
2018-09-24T17:23:27.948Z,11.51
2018-09-24T17:26:01.795Z,11.42
2018-09-24T17:28:35.782Z,11.40
2018-09-24T17:31:09.858Z,11.13
2018-09-24T17:33:44.018Z,11.16
2018-09-24T17:36:18.287Z,11.20
2018-09-24T17:38:52.328Z,11.16
2018-09-24T17:41:26.587Z,10.95
2018-09-24T17:44:00.519Z,11.18
2018-09-24T17:46:34.601Z,11.18
2018-09-24T17:49:08.518Z,11.34
2018-09-24T17:51:42.715Z,11.26
2018-09-24T17:54:16.503Z,11.23
2018-09-24T17:56:50.330Z,11.18
2018-09-24T17:59:24.251Z,11.26
2018-09-24T18:01:58.591Z,11.18
2018-09-24T18:04:32.475Z,11.11
2018-09-24T18:07:06.802Z,11.23
2018-09-24T18:09:40.715Z,11.07
2018-09-24T18:12:14.503Z,11.04
2018-09-24T18:14:48.442Z,11.08
2018-09-24T18:17:22.759Z,11.17
2018-09-24T18:19:57.053Z,11.06
2018-09-24T18:22:31.183Z,11.21
2018-09-24T18:25:05.055Z,10.93
2018-09-24T18:27:39.571Z,10.94
2018-09-24T18:30:13.430Z,11.21
2018-09-24T18:32:47.679Z,11.17
2018-09-24T18:35:21.724Z,11.27
2018-09-24T18:37:56.352Z,11.17
2018-09-24T18:40:30.206Z,11.04
2018-09-24T18:43:04.618Z,11.04
2018-09-24T18:45:38.435Z,11.09
2018-09-24T18:48:12.559Z,11.00
2018-09-24T18:50:46.270Z,10.99
2018-09-24T18:53:20.203Z,10.87
2018-09-24T18:55:54.608Z,10.71
2018-09-24T18:58:28.574Z,10.48
2018-09-24T19:01:02.434Z,10.58
2018-09-24T19:03:36.726Z,10.59
2018-09-24T19:06:11.060Z,10.58
2018-09-24T19:08:45.108Z,10.43
2018-09-24T19:11:27.703Z,10.41
2018-09-24T19:13:53.787Z,10.45
2018-09-24T19:16:27.559Z,10.58
2018-09-24T19:19:01.433Z,10.62
2018-09-24T19:21:35.259Z,10.57
2018-09-24T19:24:09.142Z,10.60
2018-09-24T19:26:43.310Z,10.76
2018-09-24T19:29:17.461Z,10.62
2018-09-24T19:31:51.505Z,10.53
2018-09-24T19:34:25.281Z,10.65
2018-09-24T19:36:59.255Z,10.55
2018-09-24T19:39:33.250Z,10.47
2018-09-24T19:42:07.165Z,10.49
2018-09-24T19:44:41.518Z,10.48
2018-09-24T19:47:15.447Z,10.60
2018-09-24T19:49:49.411Z,10.69
2018-09-24T19:52:23.258Z,10.49
2018-09-24T19:54:57.879Z,10.36
2018-09-24T19:57:32.163Z,10.48
2018-09-24T20:00:06.279Z,10.33
2018-09-24T20:02:40.166Z,10.27
2018-09-24T20:05:14.519Z,10.22
2018-09-24T20:07:48.582Z,9.99
2018-09-24T20:10:22.901Z,10.05
2018-09-24T20:12:57.027Z,10.08
2018-09-24T20:15:31.181Z,9.92
2018-09-24T20:18:05.030Z,9.83
2018-09-24T20:20:39.075Z,9.65
2018-09-24T20:23:12.819Z,9.23
2018-09-24T20:25:47.437Z,9.27
2018-09-24T20:28:21.493Z,9.31
2018-09-24T20:30:56.051Z,9.00
2018-09-24T20:33:30.043Z,9.07
2018-09-24T20:36:04.422Z,9.13
2018-09-24T20:38:38.352Z,8.93
2018-09-24T20:41:12.704Z,8.68
2018-09-24T20:43:46.614Z,8.53
2018-09-24T20:46:20.751Z,8.48
2018-09-24T20:48:54.619Z,8.32
2018-09-24T20:51:29.194Z,8.20
2018-09-24T20:54:03.251Z,8.18
2018-09-24T20:56:37.580Z,8.15
2018-09-24T20:59:11.492Z,8.29
2018-09-24T21:01:45.882Z,8.15
2018-09-24T21:04:19.866Z,8.27
2018-09-24T21:06:54.080Z,8.30
2018-09-24T21:09:28.079Z,8.42
2018-09-24T21:12:02.189Z,8.49
2018-09-24T21:14:36.238Z,8.28
2018-09-24T21:17:10.544Z,8.31
2018-09-24T21:19:44.938Z,8.25
2018-09-24T21:22:18.782Z,8.33
2018-09-24T21:24:52.778Z,8.55
2018-09-24T21:27:27.208Z,8.33
2018-09-24T21:30:01.115Z,8.45
2018-09-24T21:32:35.104Z,8.31
2018-09-24T21:35:09.208Z,8.54
2018-09-24T21:37:43.351Z,8.53
2018-09-24T21:40:17.407Z,8.54
2018-09-24T21:42:51.842Z,8.38
2018-09-24T21:45:25.719Z,8.42
2018-09-24T21:47:59.988Z,8.30
2018-09-24T21:50:33.607Z,8.31
2018-09-24T21:53:07.562Z,8.32
2018-09-24T21:55:41.693Z,8.22
2018-09-24T21:58:15.742Z,8.41
2018-09-24T22:00:49.546Z,8.27
2018-09-24T22:03:23.655Z,8.31
2018-09-24T22:05:57.715Z,8.23
2018-09-24T22:08:32.133Z,8.38
2018-09-24T22:11:06.162Z,8.23
2018-09-24T22:13:40.351Z,8.17
2018-09-24T22:16:14.196Z,8.30
2018-09-24T22:18:47.902Z,8.19
2018-09-24T22:21:21.700Z,8.21
2018-09-24T22:23:55.942Z,8.20
2018-09-24T22:26:30.138Z,8.12
2018-09-24T22:29:04.196Z,8.07
2018-09-24T22:31:38.058Z,8.06
2018-09-24T22:34:12.314Z,8.19
2018-09-24T22:36:46.535Z,8.19
2018-09-24T22:39:20.458Z,8.19
2018-09-24T22:41:54.741Z,8.44
2018-09-24T22:44:29.068Z,8.15
2018-09-24T22:47:02.777Z,8.34
2018-09-24T22:49:36.915Z,8.28
2018-09-24T22:52:10.747Z,8.30
2018-09-24T22:54:45.032Z,8.34
2018-09-24T22:57:19.177Z,8.33
2018-09-24T22:59:53.367Z,8.19
2018-09-24T23:02:27.153Z,8.31
2018-09-24T23:05:01.431Z,8.26
2018-09-24T23:07:35.485Z,8.33
2018-09-24T23:10:09.798Z,8.41
2018-09-24T23:12:43.926Z,8.24
2018-09-24T23:15:18.011Z,8.31
2018-09-24T23:17:51.865Z,8.30
2018-09-24T23:20:25.662Z,8.38
2018-09-24T23:23:00.168Z,8.46
2018-09-24T23:25:34.027Z,8.31
2018-09-24T23:28:08.098Z,8.32
2018-09-24T23:30:42.028Z,8.33
2018-09-24T23:33:16.262Z,8.23
2018-09-24T23:35:50.164Z,8.36
2018-09-24T23:38:24.059Z,8.33
2018-09-24T23:40:57.991Z,8.36
2018-09-24T23:43:32.000Z,8.34
2018-09-24T23:46:05.874Z,8.40
2018-09-24T23:48:39.750Z,8.31
2018-09-24T23:51:13.854Z,8.34
2018-09-24T23:53:48.373Z,8.49
2018-09-24T23:56:22.241Z,8.30
2018-09-24T23:58:56.030Z,8.39
